Terminal Aerodrome Forecast
Issued by NWS Grand Forks, ND

Home | Current Version | Previous Version | Text Only | Print | Product List | Glossary On
Versions: 1 2 3 4 5 6 7 8 9 10 11 12 13 14 15 16 17 18 19 20
936
FTUS43 KFGF 241720
TAFGFK
TAF
KGFK 241720Z 2418/2518 17016G23KT P6SM FEW250
     FM250400 17009KT P6SM BKN200
     FM251400 21006KT P6SM BKN045
     FM251600 25006KT P6SM BKN100=

USA.gov is the U.S. government's official web portal to all federal, state and local government web resources and services.